createdAt,value
2019-04-25T00:01:11.543Z,13.00
2019-04-25T00:03:40.428Z,13.00
2019-04-25T00:06:09.071Z,13.00
2019-04-25T00:08:37.342Z,13.00
2019-04-25T00:11:07.297Z,12.90
2019-04-25T00:13:35.279Z,13.00
2019-04-25T00:16:03.967Z,13.10
2019-04-25T00:18:31.939Z,13.20
2019-04-25T00:21:05.023Z,13.30
2019-04-25T00:23:33.797Z,13.30
2019-04-25T00:26:08.415Z,13.40
2019-04-25T00:28:36.278Z,13.40
2019-04-25T00:31:05.772Z,13.50
2019-04-25T00:33:33.463Z,13.50
2019-04-25T00:36:02.071Z,13.50
2019-04-25T00:38:31.863Z,13.50
2019-04-25T00:40:59.766Z,13.40
2019-04-25T00:43:27.501Z,13.30
2019-04-25T00:45:55.184Z,13.30
2019-04-25T00:48:22.885Z,13.30
2019-04-25T00:50:52.103Z,13.20
2019-04-25T00:53:21.219Z,12.90
2019-04-25T00:55:49.049Z,12.70
2019-04-25T00:58:54.155Z,12.50
2019-04-25T01:01:41.332Z,12.40
2019-04-25T01:04:09.228Z,12.30
2019-04-25T01:06:37.111Z,12.30
2019-04-25T01:09:08.072Z,12.30
2019-04-25T01:11:35.868Z,12.30
2019-04-25T01:14:03.571Z,12.40
2019-04-25T01:16:31.820Z,12.50
2019-04-25T01:18:59.743Z,12.60
2019-04-25T01:21:27.561Z,12.70
2019-04-25T01:23:55.780Z,12.80
2019-04-25T01:26:24.055Z,12.90
2019-04-25T01:28:51.873Z,12.90
2019-04-25T01:31:24.923Z,12.90
2019-04-25T01:33:54.396Z,12.90
2019-04-25T01:36:44.625Z,12.80
2019-04-25T01:39:27.217Z,12.60
2019-04-25T01:42:20.513Z,12.40
2019-04-25T01:44:49.494Z,12.30
2019-04-25T01:47:17.691Z,12.10
2019-04-25T01:49:45.468Z,12.10
2019-04-25T01:52:13.664Z,12.00
2019-04-25T01:54:41.449Z,11.80
2019-04-25T01:57:09.375Z,11.70
2019-04-25T01:59:37.175Z,11.60
2019-04-25T02:02:10.166Z,11.60
2019-04-25T02:04:37.882Z,11.50
2019-04-25T02:07:05.603Z,11.50
2019-04-25T02:09:33.791Z,11.40
2019-04-25T02:12:10.229Z,11.50
2019-04-25T02:14:38.087Z,11.40
2019-04-25T02:17:05.761Z,11.40
2019-04-25T02:19:33.920Z,11.40
2019-04-25T02:22:03.988Z,11.50
2019-04-25T02:24:33.749Z,11.50
2019-04-25T02:27:01.543Z,11.60
2019-04-25T02:29:29.215Z,11.70
2019-04-25T02:32:00.184Z,11.70
2019-04-25T02:34:26.389Z,11.80
2019-04-25T02:36:58.909Z,12.00
2019-04-25T02:39:25.396Z,12.10
2019-04-25T02:41:56.054Z,12.20
2019-04-25T02:44:24.761Z,12.30
2019-04-25T02:47:10.494Z,12.40
2019-04-25T02:49:58.955Z,12.60
2019-04-25T02:52:31.353Z,12.70
2019-04-25T02:55:00.426Z,12.70
2019-04-25T02:57:28.816Z,12.90
2019-04-25T02:59:57.526Z,12.90
2019-04-25T03:02:26.012Z,12.90
2019-04-25T03:04:54.557Z,13.00
2019-04-25T03:07:24.567Z,13.00
2019-04-25T03:10:10.279Z,13.00
2019-04-25T03:12:37.324Z,13.00
2019-04-25T03:15:10.952Z,13.10
2019-04-25T03:17:38.655Z,13.10
2019-04-25T03:20:31.628Z,13.10
2019-04-25T03:23:09.019Z,13.10
2019-04-25T03:25:36.144Z,13.10
2019-04-25T03:28:04.996Z,13.20
2019-04-25T03:30:35.475Z,13.20
2019-04-25T03:33:08.119Z,13.20
2019-04-25T03:35:33.236Z,13.20
2019-04-25T03:38:01.498Z,13.20
2019-04-25T03:40:29.959Z,13.10
2019-04-25T03:42:57.660Z,13.10
2019-04-25T03:45:25.367Z,13.10
2019-04-25T03:47:53.229Z,13.10
2019-04-25T03:50:20.901Z,13.00
2019-04-25T03:52:48.580Z,13.00
2019-04-25T03:55:16.256Z,13.00
2019-04-25T03:57:44.353Z,13.00
2019-04-25T04:00:14.508Z,13.00
2019-04-25T04:02:44.090Z,12.90
2019-04-25T04:05:13.557Z,12.90
2019-04-25T04:07:41.371Z,13.00
2019-04-25T04:10:09.952Z,13.00
2019-04-25T04:12:37.676Z,12.90
2019-04-25T04:15:06.746Z,12.90
2019-04-25T04:17:40.722Z,12.90
2019-04-25T04:20:43.576Z,13.00
2019-04-25T04:23:19.332Z,13.00
2019-04-25T04:25:47.148Z,13.00
2019-04-25T04:28:14.960Z,13.00
2019-04-25T04:30:43.574Z,13.00
2019-04-25T04:33:22.960Z,13.10
2019-04-25T04:35:41.615Z,13.10
2019-04-25T04:38:09.608Z,13.10
2019-04-25T04:40:37.409Z,13.10
2019-04-25T04:43:05.110Z,13.00
2019-04-25T04:45:34.367Z,13.00
2019-04-25T04:48:03.277Z,13.00
2019-04-25T04:50:31.204Z,13.00
2019-04-25T04:52:59.123Z,13.00
2019-04-25T04:55:26.809Z,13.00
2019-04-25T04:57:54.546Z,13.00
2019-04-25T05:00:24.647Z,13.00
2019-04-25T05:03:24.265Z,13.00
2019-04-25T05:06:10.930Z,13.00
2019-04-25T05:08:43.545Z,13.10
2019-04-25T05:11:12.312Z,13.20
2019-04-25T05:13:40.083Z,13.40
2019-04-25T05:16:07.896Z,13.70
2019-04-25T05:18:39.437Z,14.10
2019-04-25T05:21:05.176Z,14.40
2019-04-25T05:23:34.252Z,14.60
2019-04-25T05:26:02.308Z,14.80
2019-04-25T05:28:29.981Z,14.90
2019-04-25T05:31:16.824Z,15.10
2019-04-25T05:33:44.935Z,15.30
2019-04-25T05:36:15.000Z,15.60
2019-04-25T05:38:43.587Z,15.80
2019-04-25T05:41:31.253Z,16.00
2019-04-25T05:43:59.187Z,16.20
2019-04-25T05:46:26.863Z,16.30
2019-04-25T05:48:54.556Z,16.50
2019-04-25T05:51:23.944Z,16.70
2019-04-25T05:53:51.984Z,16.70
2019-04-25T05:56:20.119Z,16.80
2019-04-25T05:58:48.081Z,17.10
2019-04-25T06:01:17.116Z,17.30
2019-04-25T06:03:45.270Z,17.50
2019-04-25T06:06:13.410Z,17.70
2019-04-25T06:08:47.955Z,17.90
2019-04-25T06:11:29.159Z,17.90
2019-04-25T06:14:01.095Z,18.20
2019-04-25T06:16:35.503Z,18.60
2019-04-25T06:19:14.010Z,18.90
2019-04-25T06:21:37.384Z,18.90
2019-04-25T06:24:25.901Z,18.30
2019-04-25T06:27:16.470Z,18.30
2019-04-25T06:29:57.700Z,18.70
2019-04-25T06:32:15.826Z,18.80
2019-04-25T06:34:44.372Z,19.10
2019-04-25T06:37:13.908Z,19.10
2019-04-25T06:39:41.959Z,18.80
2019-04-25T06:42:09.683Z,18.20
2019-04-25T06:44:48.047Z,17.90
2019-04-25T06:47:34.083Z,17.60
2019-04-25T06:50:04.198Z,17.30
2019-04-25T06:52:32.190Z,17.10
2019-04-25T06:55:00.556Z,17.00
2019-04-25T06:57:29.402Z,16.90
2019-04-25T06:59:58.328Z,16.80
2019-04-25T07:02:27.291Z,16.80
2019-04-25T07:04:55.232Z,16.90
2019-04-25T07:07:25.275Z,16.80
2019-04-25T07:09:53.499Z,16.80
2019-04-25T07:12:24.102Z,16.90
2019-04-25T07:14:50.941Z,16.80
2019-04-25T07:18:34.367Z,16.70
2019-04-25T07:21:01.271Z,16.60
2019-04-25T07:23:29.714Z,16.70
2019-04-25T07:26:07.092Z,16.70
2019-04-25T07:28:53.915Z,16.80
2019-04-25T07:31:39.592Z,16.80
2019-04-25T07:34:14.451Z,16.80
2019-04-25T07:36:42.211Z,16.80
2019-04-25T07:39:10.916Z,16.80
2019-04-25T07:41:38.968Z,16.80
2019-04-25T07:44:07.087Z,16.80
2019-04-25T07:46:39.289Z,16.70
2019-04-25T07:49:04.729Z,16.70
2019-04-25T07:51:34.321Z,16.70
2019-04-25T07:54:01.987Z,16.70
2019-04-25T07:56:29.716Z,16.60
2019-04-25T07:58:57.529Z,16.50
2019-04-25T08:01:25.253Z,15.40
2019-04-25T08:03:53.764Z,14.30
2019-04-25T08:06:23.778Z,13.60
2019-04-25T08:08:51.632Z,12.90
2019-04-25T08:11:19.316Z,12.40
2019-04-25T08:14:18.250Z,12.10
2019-04-25T08:16:49.323Z,11.80
2019-04-25T08:19:17.783Z,11.30
2019-04-25T08:21:45.720Z,10.90
2019-04-25T08:24:14.602Z,10.80
2019-04-25T08:26:43.681Z,10.70
2019-04-25T08:29:12.908Z,10.60
2019-04-25T08:31:41.191Z,10.40
2019-04-25T08:34:08.867Z,10.30
2019-04-25T08:36:38.455Z,10.10
2019-04-25T08:39:06.932Z,9.90
2019-04-25T08:41:35.739Z,9.80
2019-04-25T08:44:07.586Z,9.70
2019-04-25T08:46:36.896Z,9.70
2019-04-25T08:49:27.870Z,9.60
2019-04-25T08:51:56.073Z,9.50
2019-04-25T08:54:35.061Z,9.50
2019-04-25T08:57:04.305Z,9.50
2019-04-25T08:59:49.166Z,9.50
2019-04-25T09:02:23.555Z,9.50
2019-04-25T09:05:09.337Z,9.50
2019-04-25T09:07:38.179Z,9.50
2019-04-25T09:10:07.038Z,9.50
2019-04-25T09:12:35.510Z,9.40
2019-04-25T09:15:05.551Z,9.40
2019-04-25T09:17:35.924Z,9.40
2019-04-25T09:20:05.515Z,9.40
2019-04-25T09:22:35.278Z,9.40
2019-04-25T09:25:03.832Z,9.40
2019-04-25T09:27:33.334Z,9.30
2019-04-25T09:30:01.104Z,9.30
2019-04-25T09:32:28.826Z,9.20
2019-04-25T09:34:56.509Z,9.20
2019-04-25T09:37:24.689Z,9.10
2019-04-25T09:40:13.990Z,9.00
2019-04-25T09:42:43.902Z,9.10
2019-04-25T09:45:43.872Z,9.10
2019-04-25T09:48:37.559Z,9.10
2019-04-25T09:51:24.668Z,9.10
2019-04-25T09:53:59.243Z,9.00
2019-04-25T09:56:31.495Z,9.00
2019-04-25T09:59:26.705Z,9.00
2019-04-25T10:01:48.262Z,8.90
2019-04-25T10:04:16.092Z,8.90
2019-04-25T10:06:45.047Z,8.80
2019-04-25T10:09:15.613Z,8.90
2019-04-25T10:11:44.772Z,8.80
2019-04-25T10:14:24.500Z,8.80
2019-04-25T10:16:53.887Z,8.80
2019-04-25T10:19:23.494Z,8.80
2019-04-25T10:21:53.440Z,8.80
2019-04-25T10:24:21.099Z,8.80
2019-04-25T10:26:48.799Z,8.80
2019-04-25T10:29:16.700Z,8.70
2019-04-25T10:31:45.215Z,8.70
2019-04-25T10:34:14.071Z,8.70
2019-04-25T10:36:42.220Z,8.70
2019-04-25T10:39:11.597Z,8.60
2019-04-25T10:41:40.168Z,8.70
2019-04-25T10:44:09.043Z,8.80
2019-04-25T10:46:36.864Z,8.90
2019-04-25T10:49:04.779Z,8.90
2019-04-25T10:51:34.155Z,9.00
2019-04-25T10:54:03.996Z,9.00
2019-04-25T10:56:33.369Z,9.10
2019-04-25T10:59:01.427Z,9.10
2019-04-25T11:01:29.910Z,9.10
2019-04-25T11:04:13.766Z,9.00
2019-04-25T11:06:41.886Z,9.00
2019-04-25T11:09:16.767Z,9.00
2019-04-25T11:11:44.466Z,9.10
2019-04-25T11:14:13.515Z,9.30
2019-04-25T11:16:42.724Z,9.50
2019-04-25T11:19:11.004Z,9.60
2019-04-25T11:21:38.728Z,9.70
2019-04-25T11:24:06.460Z,9.70
2019-04-25T11:26:34.672Z,9.80
2019-04-25T11:29:04.866Z,9.80
2019-04-25T11:31:37.986Z,9.80
2019-04-25T11:34:07.059Z,9.90
2019-04-25T11:36:34.787Z,10.00
2019-04-25T11:39:34.541Z,10.10
2019-04-25T11:42:08.063Z,10.30
2019-04-25T11:44:35.743Z,10.40
2019-04-25T11:47:07.122Z,10.50
2019-04-25T11:49:34.075Z,10.60
2019-04-25T11:52:03.141Z,10.50
2019-04-25T11:54:31.713Z,10.50
2019-04-25T11:57:18.855Z,10.50
2019-04-25T11:59:48.888Z,10.50
2019-04-25T12:02:16.224Z,10.50
2019-04-25T12:04:46.206Z,10.40
2019-04-25T12:07:14.322Z,10.30
2019-04-25T12:09:42.895Z,10.20
2019-04-25T12:12:11.649Z,10.00
2019-04-25T12:14:39.325Z,9.90
2019-04-25T12:17:07.111Z,9.80
2019-04-25T12:19:37.936Z,9.80
2019-04-25T12:22:04.376Z,9.70
2019-04-25T12:24:33.500Z,9.70
2019-04-25T12:27:01.485Z,9.70
2019-04-25T12:29:29.243Z,9.60
2019-04-25T12:31:57.277Z,9.70
2019-04-25T12:34:24.964Z,9.60
2019-04-25T12:36:54.312Z,9.60
2019-04-25T12:39:24.128Z,9.60
2019-04-25T12:41:51.974Z,9.60
2019-04-25T12:44:48.822Z,9.50
2019-04-25T12:47:19.731Z,9.40
2019-04-25T12:49:48.564Z,9.30
2019-04-25T12:52:16.508Z,9.20
2019-04-25T12:54:44.327Z,9.20
2019-04-25T12:57:14.090Z,9.20
2019-04-25T12:59:54.122Z,9.10
2019-04-25T13:02:21.019Z,9.20
2019-04-25T13:04:48.741Z,9.20
2019-04-25T13:07:19.309Z,9.30
2019-04-25T13:09:52.242Z,9.30
2019-04-25T13:12:19.991Z,9.30
2019-04-25T13:14:47.997Z,9.30
2019-04-25T13:17:15.686Z,9.30
2019-04-25T13:19:44.085Z,9.20
2019-04-25T13:22:12.302Z,9.20
2019-04-25T13:24:40.016Z,9.10
2019-04-25T13:27:15.540Z,9.10
2019-04-25T13:30:01.351Z,9.20
2019-04-25T13:33:06.560Z,9.10
2019-04-25T13:35:40.022Z,9.10
2019-04-25T13:38:08.611Z,9.10
2019-04-25T13:40:36.487Z,9.10
2019-04-25T13:43:05.211Z,9.20
2019-04-25T13:45:33.916Z,9.20
2019-04-25T13:48:03.347Z,9.20
2019-04-25T13:50:32.007Z,9.10
2019-04-25T13:53:03.323Z,9.00
2019-04-25T13:55:32.151Z,9.00
2019-04-25T13:58:00.271Z,9.00
2019-04-25T14:00:28.708Z,9.00
2019-04-25T14:02:56.521Z,9.00
2019-04-25T14:05:28.199Z,9.00
2019-04-25T14:07:56.247Z,9.00
2019-04-25T14:10:25.130Z,9.00
2019-04-25T14:12:53.858Z,9.10
2019-04-25T14:15:25.211Z,9.10
2019-04-25T14:18:11.095Z,9.10
2019-04-25T14:20:42.259Z,9.30
2019-04-25T14:23:12.871Z,9.30
2019-04-25T14:25:41.116Z,9.40
2019-04-25T14:28:09.377Z,9.40
2019-04-25T14:30:37.080Z,9.50
2019-04-25T14:33:07.924Z,9.50
2019-04-25T14:35:35.742Z,9.50
2019-04-25T14:38:04.072Z,9.60
2019-04-25T14:40:31.916Z,9.60
2019-04-25T14:43:00.121Z,9.70
2019-04-25T14:45:40.341Z,9.70
2019-04-25T14:47:57.455Z,9.80
2019-04-25T14:50:25.549Z,9.80
2019-04-25T14:52:53.303Z,9.80
2019-04-25T14:55:48.906Z,9.90
2019-04-25T14:58:17.421Z,10.10
2019-04-25T15:00:46.355Z,10.30
2019-04-25T15:03:14.134Z,10.40
2019-04-25T15:05:43.412Z,10.40
2019-04-25T15:08:11.810Z,10.40
2019-04-25T15:10:39.998Z,10.30
2019-04-25T15:13:09.467Z,10.40
2019-04-25T15:15:37.188Z,10.50
2019-04-25T15:18:05.273Z,10.60
2019-04-25T15:20:34.357Z,10.60
2019-04-25T15:23:02.152Z,10.70
2019-04-25T15:25:29.879Z,10.80
2019-04-25T15:27:57.567Z,11.00
2019-04-25T15:30:29.411Z,11.20
2019-04-25T15:32:57.372Z,11.20
2019-04-25T15:35:51.550Z,11.20
2019-04-25T15:38:31.808Z,11.20
2019-04-25T15:41:10.139Z,11.10
2019-04-25T15:43:50.490Z,11.10
2019-04-25T15:46:21.703Z,11.00
2019-04-25T15:48:49.403Z,10.90
2019-04-25T15:51:17.150Z,10.80
2019-04-25T15:53:44.929Z,10.80
2019-04-25T15:56:12.624Z,10.70
2019-04-25T15:58:40.362Z,10.60
2019-04-25T16:01:08.536Z,10.60
2019-04-25T16:03:49.625Z,10.60
2019-04-25T16:06:17.267Z,10.50
2019-04-25T16:08:45.539Z,10.50
2019-04-25T16:11:13.282Z,10.50
2019-04-25T16:13:41.099Z,10.50
2019-04-25T16:16:08.951Z,10.50
2019-04-25T16:18:36.754Z,10.50
2019-04-25T16:21:05.008Z,10.50
2019-04-25T16:23:32.760Z,10.50
2019-04-25T16:26:00.967Z,10.50
2019-04-25T16:28:28.901Z,10.40
2019-04-25T16:30:56.939Z,10.40
2019-04-25T16:33:24.634Z,10.40
2019-04-25T16:35:52.324Z,10.40
2019-04-25T16:38:20.009Z,10.40
2019-04-25T16:40:47.716Z,10.50
2019-04-25T16:43:19.594Z,10.50
2019-04-25T16:45:47.548Z,10.40
2019-04-25T16:48:15.882Z,10.40
2019-04-25T16:50:43.687Z,10.30
2019-04-25T16:53:11.405Z,10.30
2019-04-25T16:55:42.067Z,10.20
2019-04-25T16:58:10.086Z,10.20
2019-04-25T17:00:48.061Z,10.00
2019-04-25T17:03:17.768Z,9.90
2019-04-25T17:05:45.747Z,9.90
2019-04-25T17:08:13.896Z,9.80
2019-04-25T17:10:41.701Z,9.80
2019-04-25T17:13:09.959Z,9.70
2019-04-25T17:16:03.428Z,9.70
2019-04-25T17:18:36.568Z,9.60
2019-04-25T17:21:06.244Z,9.60
2019-04-25T17:23:34.511Z,9.50
2019-04-25T17:26:03.128Z,9.40
2019-04-25T17:28:33.113Z,9.40
2019-04-25T17:31:18.100Z,9.40
2019-04-25T17:33:58.891Z,9.50
2019-04-25T17:36:33.745Z,9.40
2019-04-25T17:39:23.568Z,9.30
2019-04-25T17:41:51.398Z,9.40
2019-04-25T17:44:19.207Z,9.30
2019-04-25T17:46:48.255Z,9.20
2019-04-25T17:49:16.186Z,9.20
2019-04-25T17:51:44.071Z,9.10
2019-04-25T17:54:11.911Z,9.10
2019-04-25T17:56:39.723Z,9.10
2019-04-25T17:59:07.525Z,9.10
2019-04-25T18:01:35.990Z,9.10
2019-04-25T18:04:04.222Z,9.10
2019-04-25T18:06:31.972Z,9.10
2019-04-25T18:08:59.716Z,9.10
2019-04-25T18:11:27.541Z,9.10
2019-04-25T18:13:55.381Z,9.10
2019-04-25T18:16:28.640Z,9.10
2019-04-25T18:19:15.898Z,9.10
2019-04-25T18:21:44.931Z,9.20
2019-04-25T18:24:31.404Z,9.20
2019-04-25T18:27:17.184Z,9.20
2019-04-25T18:29:45.034Z,9.20
2019-04-25T18:32:13.345Z,9.20
2019-04-25T18:34:49.903Z,9.20
2019-04-25T18:37:43.305Z,9.20
2019-04-25T18:40:22.085Z,9.20
2019-04-25T18:43:06.627Z,9.20
2019-04-25T18:45:35.835Z,9.20
2019-04-25T18:48:04.788Z,9.20
2019-04-25T18:50:33.538Z,9.20
2019-04-25T18:53:29.803Z,9.20
2019-04-25T18:56:17.177Z,9.10
2019-04-25T18:59:13.264Z,9.10
2019-04-25T19:01:59.061Z,9.10
2019-04-25T19:04:45.009Z,9.10
2019-04-25T19:07:22.102Z,9.10
2019-04-25T19:09:42.892Z,9.10
2019-04-25T19:12:10.833Z,9.10
2019-04-25T19:14:39.907Z,9.10
2019-04-25T19:17:09.367Z,9.10
2019-04-25T19:19:37.132Z,9.10
2019-04-25T19:22:04.951Z,9.10
2019-04-25T19:24:32.706Z,9.10
2019-04-25T19:27:01.300Z,9.20
2019-04-25T19:29:29.126Z,9.10
2019-04-25T19:31:57.147Z,9.10
2019-04-25T19:34:24.848Z,9.10
2019-04-25T19:36:52.543Z,9.10
2019-04-25T19:39:22.324Z,9.10
2019-04-25T19:42:09.463Z,9.10
2019-04-25T19:44:37.307Z,9.10
2019-04-25T19:47:04.993Z,9.10
2019-04-25T19:49:32.755Z,9.00
2019-04-25T19:52:00.450Z,8.90
2019-04-25T19:54:30.085Z,8.90
2019-04-25T19:56:57.815Z,8.80
2019-04-25T19:59:25.498Z,8.80
2019-04-25T20:01:55.099Z,8.70
2019-04-25T20:04:51.159Z,8.70
2019-04-25T20:07:29.288Z,8.70
2019-04-25T20:10:19.323Z,8.70
2019-04-25T20:12:50.508Z,8.70
2019-04-25T20:15:18.003Z,8.60
2019-04-25T20:17:45.993Z,8.60
2019-04-25T20:20:14.253Z,8.70
2019-04-25T20:22:42.044Z,8.80
2019-04-25T20:25:09.954Z,8.80
2019-04-25T20:27:37.731Z,8.90
2019-04-25T20:30:05.983Z,8.80
2019-04-25T20:32:33.960Z,8.80
2019-04-25T20:35:01.808Z,8.90
2019-04-25T20:37:29.645Z,8.90
2019-04-25T20:39:57.594Z,8.90
2019-04-25T20:42:25.367Z,8.90
2019-04-25T20:44:53.758Z,8.80
2019-04-25T20:47:21.528Z,8.70
2019-04-25T20:49:49.563Z,8.70
2019-04-25T20:52:17.363Z,8.80
2019-04-25T20:54:46.450Z,8.80
2019-04-25T20:57:15.055Z,8.80
2019-04-25T20:59:42.797Z,8.70
2019-04-25T21:02:10.591Z,8.70
2019-04-25T21:04:41.718Z,8.70
2019-04-25T21:07:10.390Z,8.60
2019-04-25T21:09:38.743Z,8.60
2019-04-25T21:12:07.411Z,8.60
2019-04-25T21:14:58.280Z,8.60
2019-04-25T21:17:29.991Z,8.50
2019-04-25T21:20:01.412Z,8.50
2019-04-25T21:22:29.288Z,8.50
2019-04-25T21:24:57.939Z,8.40
2019-04-25T21:27:25.999Z,8.30
2019-04-25T21:29:55.620Z,8.30
2019-04-25T21:32:24.103Z,8.30
2019-04-25T21:34:55.192Z,8.40
2019-04-25T21:37:26.007Z,8.40
2019-04-25T21:40:06.768Z,8.50
2019-04-25T21:42:54.249Z,8.50
2019-04-25T21:45:22.259Z,8.50
2019-04-25T21:47:50.363Z,8.50
2019-04-25T21:50:19.757Z,8.40
2019-04-25T21:52:47.820Z,8.40
2019-04-25T21:55:16.080Z,8.40
2019-04-25T21:57:44.015Z,8.30
2019-04-25T22:00:14.864Z,8.30
2019-04-25T22:02:42.992Z,8.30
2019-04-25T22:05:11.709Z,8.20
2019-04-25T22:07:39.931Z,8.20
2019-04-25T22:10:08.133Z,8.20
2019-04-25T22:12:35.851Z,8.10
2019-04-25T22:15:05.750Z,8.10
2019-04-25T22:17:33.537Z,8.10
2019-04-25T22:20:02.245Z,8.00
2019-04-25T22:22:30.884Z,8.00
2019-04-25T22:24:58.637Z,8.00
2019-04-25T22:27:31.126Z,8.00
2019-04-25T22:29:59.883Z,8.00
2019-04-25T22:32:41.542Z,8.00
2019-04-25T22:35:23.404Z,7.90
2019-04-25T22:37:51.228Z,7.90
2019-04-25T22:40:18.879Z,7.90
2019-04-25T22:42:46.782Z,7.90
2019-04-25T22:45:14.669Z,7.90
2019-04-25T22:47:42.459Z,7.80
2019-04-25T22:50:10.687Z,7.90
2019-04-25T22:52:40.686Z,7.90
2019-04-25T22:55:08.655Z,7.80
2019-04-25T22:57:36.654Z,7.80
2019-04-25T23:00:07.451Z,7.80
2019-04-25T23:02:44.002Z,7.80
2019-04-25T23:05:24.427Z,7.80
2019-04-25T23:07:52.200Z,7.80
2019-04-25T23:10:22.764Z,7.80
2019-04-25T23:12:50.077Z,7.70
2019-04-25T23:15:17.789Z,7.80
2019-04-25T23:17:45.960Z,7.80
2019-04-25T23:20:13.982Z,7.70
2019-04-25T23:22:41.702Z,7.70
2019-04-25T23:25:12.037Z,7.70
2019-04-25T23:27:49.185Z,7.70
2019-04-25T23:30:18.823Z,7.60
2019-04-25T23:32:49.891Z,7.60
2019-04-25T23:35:28.433Z,7.60
2019-04-25T23:37:47.180Z,7.60
2019-04-25T23:40:15.860Z,7.60
2019-04-25T23:42:44.168Z,7.60
2019-04-25T23:45:14.521Z,7.50
2019-04-25T23:47:42.560Z,7.60
2019-04-25T23:50:10.673Z,7.60
2019-04-25T23:52:38.868Z,7.60
2019-04-25T23:55:06.776Z,7.60
2019-04-25T23:57:36.622Z,7.60
